Terminal Aerodrome Forecast
Issued by NWS Bismarck, ND

Home | Current Version | Previous Version | Graphics & Text | Print | Product List | Glossary On
Versions: 1 2 3 4 5 6 7 8 9 10 11 12 13 14 15 16
844
FTUS43 KBIS 250217 AAC
TAFBIS
TAF AMD
KBIS 250217Z 2502/2524 24006KT P6SM BKN080
     FM250600 26010KT P6SM BKN025
     FM250800 27015KT P6SM VCSH BKN015
     FM251000 30022G31KT P6SM -SHRA OVC010
     FM251300 31024G34KT P6SM BKN025
     FM251500 31024G34KT P6SM SCT040=

USA.gov is the U.S. government's official web portal to all federal, state and local government web resources and services.